sensor_id;sensor_type;location;lat;lon;timestamp;temperature;humidity
17039;DHT22;8636;55.750;13.202;2023-06-10T00:01:05;10.90;99.90
17039;DHT22;8636;55.750;13.202;2023-06-10T00:03:40;10.80;99.90
17039;DHT22;8636;55.750;13.202;2023-06-10T00:06:10;10.90;99.90
17039;DHT22;8636;55.750;13.202;2023-06-10T00:08:38;10.90;99.90
17039;DHT22;8636;55.750;13.202;2023-06-10T00:11:13;10.90;99.90
17039;DHT22;8636;55.750;13.202;2023-06-10T00:13:41;10.90;99.90
17039;DHT22;8636;55.750;13.202;2023-06-10T00:16:09;11.10;99.90
17039;DHT22;8636;55.750;13.202;2023-06-10T00:18:45;11.10;99.90
17039;DHT22;8636;55.750;13.202;2023-06-10T00:21:13;11.00;99.90
17039;DHT22;8636;55.750;13.202;2023-06-10T00:23:42;11.00;99.90
17039;DHT22;8636;55.750;13.202;2023-06-10T00:26:17;10.90;99.90
17039;DHT22;8636;55.750;13.202;2023-06-10T00:28:45;10.90;99.90
17039;DHT22;8636;55.750;13.202;2023-06-10T00:31:13;10.90;99.90
17039;DHT22;8636;55.750;13.202;2023-06-10T00:33:48;10.80;99.90
17039;DHT22;8636;55.750;13.202;2023-06-10T00:36:16;10.80;99.90
17039;DHT22;8636;55.750;13.202;2023-06-10T00:38:44;10.80;99.90
17039;DHT22;8636;55.750;13.202;2023-06-10T00:41:19;10.90;99.90
17039;DHT22;8636;55.750;13.202;2023-06-10T00:43:47;10.90;99.90
17039;DHT22;8636;55.750;13.202;2023-06-10T00:46:15;11.00;99.90
17039;DHT22;8636;55.750;13.202;2023-06-10T00:48:52;10.90;99.90
17039;DHT22;8636;55.750;13.202;2023-06-10T00:51:20;10.80;99.90
17039;DHT22;8636;55.750;13.202;2023-06-10T00:53:48;10.70;99.90
17039;DHT22;8636;55.750;13.202;2023-06-10T00:56:30;10.70;99.90
17039;DHT22;8636;55.750;13.202;2023-06-10T00:59:11;10.60;99.90
17039;DHT22;8636;55.750;13.202;2023-06-10T01:01:47;10.60;99.90
17039;DHT22;8636;55.750;13.202;2023-06-10T01:04:16;10.70;99.90
17039;DHT22;8636;55.750;13.202;2023-06-10T01:07:02;10.70;99.90
17039;DHT22;8636;55.750;13.202;2023-06-10T01:09:44;10.70;99.90
17039;DHT22;8636;55.750;13.202;2023-06-10T01:12:19;10.70;99.90
17039;DHT22;8636;55.750;13.202;2023-06-10T01:14:54;10.70;99.90
17039;DHT22;8636;55.750;13.202;2023-06-10T01:17:22;10.70;99.90
17039;DHT22;8636;55.750;13.202;2023-06-10T01:19:55;10.60;99.90
17039;DHT22;8636;55.750;13.202;2023-06-10T01:22:31;10.70;99.90
17039;DHT22;8636;55.750;13.202;2023-06-10T01:25:03;10.70;99.90
17039;DHT22;8636;55.750;13.202;2023-06-10T01:27:40;10.70;99.90
17039;DHT22;8636;55.750;13.202;2023-06-10T01:30:15;10.60;99.90
17039;DHT22;8636;55.750;13.202;2023-06-10T01:32:54;10.60;99.90
17039;DHT22;8636;55.750;13.202;2023-06-10T01:35:24;10.60;99.90
17039;DHT22;8636;55.750;13.202;2023-06-10T01:37:56;10.50;99.90
17039;DHT22;8636;55.750;13.202;2023-06-10T01:40:32;10.60;99.90
17039;DHT22;8636;55.750;13.202;2023-06-10T01:43:02;10.50;99.90
17039;DHT22;8636;55.750;13.202;2023-06-10T01:45:30;10.40;99.90
17039;DHT22;8636;55.750;13.202;2023-06-10T01:48:04;10.40;99.90
17039;DHT22;8636;55.750;13.202;2023-06-10T01:50:32;10.40;99.90
17039;DHT22;8636;55.750;13.202;2023-06-10T01:53:01;10.40;99.90
17039;DHT22;8636;55.750;13.202;2023-06-10T01:55:36;10.40;99.90
17039;DHT22;8636;55.750;13.202;2023-06-10T01:58:10;10.50;99.90
17039;DHT22;8636;55.750;13.202;2023-06-10T02:00:45;10.40;99.90
17039;DHT22;8636;55.750;13.202;2023-06-10T02:03:13;10.40;99.90
17039;DHT22;8636;55.750;13.202;2023-06-10T02:05:41;10.30;99.90
17039;DHT22;8636;55.750;13.202;2023-06-10T02:08:18;10.30;99.90
17039;DHT22;8636;55.750;13.202;2023-06-10T02:10:46;10.30;99.90
17039;DHT22;8636;55.750;13.202;2023-06-10T02:13:14;10.40;99.90
17039;DHT22;8636;55.750;13.202;2023-06-10T02:15:48;10.40;99.90
17039;DHT22;8636;55.750;13.202;2023-06-10T02:18:16;10.40;99.90
17039;DHT22;8636;55.750;13.202;2023-06-10T02:20:47;10.30;99.90
17039;DHT22;8636;55.750;13.202;2023-06-10T02:23:23;10.30;99.90
17039;DHT22;8636;55.750;13.202;2023-06-10T02:25:51;10.30;99.90
17039;DHT22;8636;55.750;13.202;2023-06-10T02:28:19;10.30;99.90
17039;DHT22;8636;55.750;13.202;2023-06-10T02:30:54;10.30;99.90
17039;DHT22;8636;55.750;13.202;2023-06-10T02:33:23;10.30;99.90
17039;DHT22;8636;55.750;13.202;2023-06-10T02:35:51;10.30;99.90
17039;DHT22;8636;55.750;13.202;2023-06-10T02:38:27;10.30;99.90
17039;DHT22;8636;55.750;13.202;2023-06-10T02:40:55;10.30;99.90
17039;DHT22;8636;55.750;13.202;2023-06-10T02:43:23;10.20;99.90
17039;DHT22;8636;55.750;13.202;2023-06-10T02:45:58;10.30;99.90
17039;DHT22;8636;55.750;13.202;2023-06-10T02:48:27;10.30;99.90
17039;DHT22;8636;55.750;13.202;2023-06-10T02:50:55;10.40;99.90
17039;DHT22;8636;55.750;13.202;2023-06-10T02:53:31;10.40;99.90
17039;DHT22;8636;55.750;13.202;2023-06-10T02:55:59;10.40;99.90
17039;DHT22;8636;55.750;13.202;2023-06-10T02:58:27;10.40;99.90
17039;DHT22;8636;55.750;13.202;2023-06-10T03:01:08;10.70;99.90
17039;DHT22;8636;55.750;13.202;2023-06-10T03:03:37;11.20;99.90
17039;DHT22;8636;55.750;13.202;2023-06-10T03:06:09;11.80;99.90
17039;DHT22;8636;55.750;13.202;2023-06-10T03:08:46;12.10;99.90
17039;DHT22;8636;55.750;13.202;2023-06-10T03:11:14;12.40;99.90
17039;DHT22;8636;55.750;13.202;2023-06-10T03:13:42;12.70;99.90
17039;DHT22;8636;55.750;13.202;2023-06-10T03:16:17;13.00;99.90
17039;DHT22;8636;55.750;13.202;2023-06-10T03:18:45;13.00;99.90
17039;DHT22;8636;55.750;13.202;2023-06-10T03:21:13;13.30;99.90
17039;DHT22;8636;55.750;13.202;2023-06-10T03:23:49;13.40;99.90
17039;DHT22;8636;55.750;13.202;2023-06-10T03:26:17;13.70;99.90
17039;DHT22;8636;55.750;13.202;2023-06-10T03:28:55;14.20;99.90
17039;DHT22;8636;55.750;13.202;2023-06-10T03:31:23;14.50;99.90
17039;DHT22;8636;55.750;13.202;2023-06-10T03:33:51;14.00;99.90
17039;DHT22;8636;55.750;13.202;2023-06-10T03:36:26;14.20;99.90
17039;DHT22;8636;55.750;13.202;2023-06-10T03:38:56;14.50;99.90
17039;DHT22;8636;55.750;13.202;2023-06-10T03:41:24;14.80;99.90
17039;DHT22;8636;55.750;13.202;2023-06-10T03:43:59;14.90;99.90
17039;DHT22;8636;55.750;13.202;2023-06-10T03:46:27;15.00;99.90
17039;DHT22;8636;55.750;13.202;2023-06-10T03:49:08;15.30;99.90
17039;DHT22;8636;55.750;13.202;2023-06-10T03:51:37;15.30;99.90
17039;DHT22;8636;55.750;13.202;2023-06-10T03:54:06;15.60;99.90
17039;DHT22;8636;55.750;13.202;2023-06-10T03:56:47;15.50;99.90
17039;DHT22;8636;55.750;13.202;2023-06-10T03:59:29;15.90;99.90
17039;DHT22;8636;55.750;13.202;2023-06-10T04:02:03;16.10;99.90
17039;DHT22;8636;55.750;13.202;2023-06-10T04:04:31;16.10;99.90
17039;DHT22;8636;55.750;13.202;2023-06-10T04:06:59;16.60;99.90
17039;DHT22;8636;55.750;13.202;2023-06-10T04:09:36;17.00;99.90
17039;DHT22;8636;55.750;13.202;2023-06-10T04:12:06;17.30;99.90
17039;DHT22;8636;55.750;13.202;2023-06-10T04:14:42;17.80;99.90
17039;DHT22;8636;55.750;13.202;2023-06-10T04:17:10;17.60;99.90
17039;DHT22;8636;55.750;13.202;2023-06-10T04:19:38;17.80;99.90
17039;DHT22;8636;55.750;13.202;2023-06-10T04:22:13;17.70;99.90
17039;DHT22;8636;55.750;13.202;2023-06-10T04:24:42;17.90;99.90
17039;DHT22;8636;55.750;13.202;2023-06-10T04:27:10;17.50;99.90
17039;DHT22;8636;55.750;13.202;2023-06-10T04:29:45;18.40;99.90
17039;DHT22;8636;55.750;13.202;2023-06-10T04:32:13;19.60;99.90
17039;DHT22;8636;55.750;13.202;2023-06-10T04:34:41;20.40;99.90
17039;DHT22;8636;55.750;13.202;2023-06-10T04:37:16;19.60;99.90
17039;DHT22;8636;55.750;13.202;2023-06-10T04:39:46;19.10;99.90
17039;DHT22;8636;55.750;13.202;2023-06-10T04:42:14;19.40;99.90
17039;DHT22;8636;55.750;13.202;2023-06-10T04:44:48;18.80;99.90
17039;DHT22;8636;55.750;13.202;2023-06-10T04:47:16;19.20;99.90
17039;DHT22;8636;55.750;13.202;2023-06-10T04:49:44;18.70;99.90
17039;DHT22;8636;55.750;13.202;2023-06-10T04:52:19;20.20;99.90
17039;DHT22;8636;55.750;13.202;2023-06-10T04:54:49;21.00;99.90
17039;DHT22;8636;55.750;13.202;2023-06-10T04:57:16;21.00;99.90
17039;DHT22;8636;55.750;13.202;2023-06-10T04:59:58;20.10;99.90
17039;DHT22;8636;55.750;13.202;2023-06-10T05:02:25;20.50;99.90
17039;DHT22;8636;55.750;13.202;2023-06-10T05:05:00;20.90;99.90
17039;DHT22;8636;55.750;13.202;2023-06-10T05:07:28;20.40;99.90
17039;DHT22;8636;55.750;13.202;2023-06-10T05:09:57;21.50;99.90
17039;DHT22;8636;55.750;13.202;2023-06-10T05:12:33;20.90;99.90
17039;DHT22;8636;55.750;13.202;2023-06-10T05:15:01;20.40;99.90
17039;DHT22;8636;55.750;13.202;2023-06-10T05:17:29;21.00;99.90
17039;DHT22;8636;55.750;13.202;2023-06-10T05:20:04;20.60;99.90
17039;DHT22;8636;55.750;13.202;2023-06-10T05:22:32;20.70;99.90
17039;DHT22;8636;55.750;13.202;2023-06-10T05:25:02;21.50;99.90
17039;DHT22;8636;55.750;13.202;2023-06-10T05:27:37;21.00;99.90
17039;DHT22;8636;55.750;13.202;2023-06-10T05:30:08;20.90;99.90
17039;DHT22;8636;55.750;13.202;2023-06-10T05:32:36;19.90;99.90
17039;DHT22;8636;55.750;13.202;2023-06-10T05:35:11;20.10;99.90
17039;DHT22;8636;55.750;13.202;2023-06-10T05:37:39;19.80;99.90
17039;DHT22;8636;55.750;13.202;2023-06-10T05:40:09;19.20;99.90
17039;DHT22;8636;55.750;13.202;2023-06-10T05:42:44;18.10;99.90
17039;DHT22;8636;55.750;13.202;2023-06-10T05:45:12;17.50;99.90
17039;DHT22;8636;55.750;13.202;2023-06-10T05:47:40;17.00;99.90
17039;DHT22;8636;55.750;13.202;2023-06-10T05:50:15;17.10;99.90
17039;DHT22;8636;55.750;13.202;2023-06-10T05:52:43;16.90;99.90
17039;DHT22;8636;55.750;13.202;2023-06-10T05:55:12;16.60;99.90
17039;DHT22;8636;55.750;13.202;2023-06-10T05:57:48;16.50;99.90
17039;DHT22;8636;55.750;13.202;2023-06-10T06:00:39;16.60;99.90
17039;DHT22;8636;55.750;13.202;2023-06-10T06:03:14;16.70;99.90
17039;DHT22;8636;55.750;13.202;2023-06-10T06:05:42;16.80;99.90
17039;DHT22;8636;55.750;13.202;2023-06-10T06:08:10;17.20;99.90
17039;DHT22;8636;55.750;13.202;2023-06-10T06:10:49;17.20;99.90
17039;DHT22;8636;55.750;13.202;2023-06-10T06:13:17;17.30;99.90
17039;DHT22;8636;55.750;13.202;2023-06-10T06:15:45;17.40;99.90
17039;DHT22;8636;55.750;13.202;2023-06-10T06:18:20;17.00;99.90
17039;DHT22;8636;55.750;13.202;2023-06-10T06:20:49;16.80;99.90
17039;DHT22;8636;55.750;13.202;2023-06-10T06:23:17;17.20;99.90
17039;DHT22;8636;55.750;13.202;2023-06-10T06:25:52;16.90;99.90
17039;DHT22;8636;55.750;13.202;2023-06-10T06:28:20;16.80;99.90
17039;DHT22;8636;55.750;13.202;2023-06-10T06:30:49;16.80;99.90
17039;DHT22;8636;55.750;13.202;2023-06-10T06:33:23;17.10;99.90
17039;DHT22;8636;55.750;13.202;2023-06-10T06:35:53;17.00;99.90
17039;DHT22;8636;55.750;13.202;2023-06-10T06:38:20;17.00;99.90
17039;DHT22;8636;55.750;13.202;2023-06-10T06:40:56;16.90;99.90
17039;DHT22;8636;55.750;13.202;2023-06-10T06:43:29;16.80;99.90
17039;DHT22;8636;55.750;13.202;2023-06-10T06:46:05;17.00;99.90
17039;DHT22;8636;55.750;13.202;2023-06-10T06:48:33;16.80;99.90
17039;DHT22;8636;55.750;13.202;2023-06-10T06:51:01;17.00;99.90
17039;DHT22;8636;55.750;13.202;2023-06-10T06:53:36;17.00;99.90
17039;DHT22;8636;55.750;13.202;2023-06-10T06:56:12;17.20;99.90
17039;DHT22;8636;55.750;13.202;2023-06-10T06:58:46;17.20;99.90
17039;DHT22;8636;55.750;13.202;2023-06-10T07:01:24;17.20;99.90
17039;DHT22;8636;55.750;13.202;2023-06-10T07:03:58;17.20;99.90
17039;DHT22;8636;55.750;13.202;2023-06-10T07:06:26;17.40;99.90
17039;DHT22;8636;55.750;13.202;2023-06-10T07:08:54;17.50;99.90
17039;DHT22;8636;55.750;13.202;2023-06-10T07:11:30;17.50;99.90
17039;DHT22;8636;55.750;13.202;2023-06-10T07:13:58;17.40;99.90
17039;DHT22;8636;55.750;13.202;2023-06-10T07:16:26;17.50;99.90
17039;DHT22;8636;55.750;13.202;2023-06-10T07:19:01;17.70;99.90
17039;DHT22;8636;55.750;13.202;2023-06-10T07:21:31;18.00;99.90
17039;DHT22;8636;55.750;13.202;2023-06-10T07:24:00;17.90;99.90
17039;DHT22;8636;55.750;13.202;2023-06-10T07:26:36;17.80;99.90
17039;DHT22;8636;55.750;13.202;2023-06-10T07:29:04;18.10;99.90
17039;DHT22;8636;55.750;13.202;2023-06-10T07:31:32;18.30;99.90
17039;DHT22;8636;55.750;13.202;2023-06-10T07:34:07;18.10;99.90
17039;DHT22;8636;55.750;13.202;2023-06-10T07:36:35;17.90;99.90
17039;DHT22;8636;55.750;13.202;2023-06-10T07:39:04;18.00;99.90
17039;DHT22;8636;55.750;13.202;2023-06-10T07:41:40;18.10;99.90
17039;DHT22;8636;55.750;13.202;2023-06-10T07:44:08;18.50;99.90
17039;DHT22;8636;55.750;13.202;2023-06-10T07:46:36;18.40;99.90
17039;DHT22;8636;55.750;13.202;2023-06-10T07:49:11;18.60;99.90
17039;DHT22;8636;55.750;13.202;2023-06-10T07:51:39;18.50;99.90
17039;DHT22;8636;55.750;13.202;2023-06-10T07:54:07;18.70;99.90
17039;DHT22;8636;55.750;13.202;2023-06-10T07:56:51;19.20;99.90
17039;DHT22;8636;55.750;13.202;2023-06-10T07:59:32;19.20;99.90
17039;DHT22;8636;55.750;13.202;2023-06-10T08:02:06;19.40;99.90
17039;DHT22;8636;55.750;13.202;2023-06-10T08:04:34;19.40;99.90
17039;DHT22;8636;55.750;13.202;2023-06-10T08:07:03;19.50;99.90
17039;DHT22;8636;55.750;13.202;2023-06-10T08:09:37;19.30;99.90
17039;DHT22;8636;55.750;13.202;2023-06-10T08:12:07;19.20;99.90
17039;DHT22;8636;55.750;13.202;2023-06-10T08:14:35;19.30;99.90
17039;DHT22;8636;55.750;13.202;2023-06-10T08:17:11;19.00;99.90
17039;DHT22;8636;55.750;13.202;2023-06-10T08:19:39;19.20;99.90
17039;DHT22;8636;55.750;13.202;2023-06-10T08:22:06;19.20;99.90
17039;DHT22;8636;55.750;13.202;2023-06-10T08:24:41;19.50;99.90
17039;DHT22;8636;55.750;13.202;2023-06-10T08:27:11;19.60;99.90
17039;DHT22;8636;55.750;13.202;2023-06-10T08:29:40;19.40;99.90
17039;DHT22;8636;55.750;13.202;2023-06-10T08:32:14;19.30;99.90
17039;DHT22;8636;55.750;13.202;2023-06-10T08:34:42;19.40;99.90
17039;DHT22;8636;55.750;13.202;2023-06-10T08:37:10;19.30;99.90
17039;DHT22;8636;55.750;13.202;2023-06-10T08:39:45;19.40;99.90
17039;DHT22;8636;55.750;13.202;2023-06-10T08:42:22;19.30;99.90
17039;DHT22;8636;55.750;13.202;2023-06-10T08:45:02;19.60;99.90
17039;DHT22;8636;55.750;13.202;2023-06-10T08:47:30;19.50;99.90
17039;DHT22;8636;55.750;13.202;2023-06-10T08:50:08;19.40;99.90
17039;DHT22;8636;55.750;13.202;2023-06-10T08:52:42;19.50;99.90
17039;DHT22;8636;55.750;13.202;2023-06-10T08:55:21;19.80;99.90
17039;DHT22;8636;55.750;13.202;2023-06-10T08:58:03;19.90;99.90
17039;DHT22;8636;55.750;13.202;2023-06-10T09:00:38;20.00;99.90
17039;DHT22;8636;55.750;13.202;2023-06-10T09:03:06;19.80;99.90
17039;DHT22;8636;55.750;13.202;2023-06-10T09:05:36;19.70;99.90
17039;DHT22;8636;55.750;13.202;2023-06-10T09:08:11;19.60;99.90
17039;DHT22;8636;55.750;13.202;2023-06-10T09:10:40;19.90;99.90
17039;DHT22;8636;55.750;13.202;2023-06-10T09:13:10;20.00;99.90
17039;DHT22;8636;55.750;13.202;2023-06-10T09:15:44;19.90;99.90
17039;DHT22;8636;55.750;13.202;2023-06-10T09:18:12;20.40;99.90
17039;DHT22;8636;55.750;13.202;2023-06-10T09:20:42;20.50;99.90
17039;DHT22;8636;55.750;13.202;2023-06-10T09:23:17;20.20;99.90
17039;DHT22;8636;55.750;13.202;2023-06-10T09:25:45;20.30;99.90
17039;DHT22;8636;55.750;13.202;2023-06-10T09:28:15;20.50;99.90
17039;DHT22;8636;55.750;13.202;2023-06-10T09:31:02;20.30;99.90
17039;DHT22;8636;55.750;13.202;2023-06-10T09:33:37;20.00;99.90
17039;DHT22;8636;55.750;13.202;2023-06-10T09:36:21;20.30;99.90
17039;DHT22;8636;55.750;13.202;2023-06-10T09:38:50;20.30;99.90
17039;DHT22;8636;55.750;13.202;2023-06-10T09:41:32;20.30;99.90
17039;DHT22;8636;55.750;13.202;2023-06-10T09:44:02;20.30;99.90
17039;DHT22;8636;55.750;13.202;2023-06-10T09:46:46;20.30;99.90
17039;DHT22;8636;55.750;13.202;2023-06-10T09:49:14;20.10;99.90
17039;DHT22;8636;55.750;13.202;2023-06-10T09:51:49;20.50;99.90
17039;DHT22;8636;55.750;13.202;2023-06-10T09:54:31;20.60;99.90
17039;DHT22;8636;55.750;13.202;2023-06-10T09:57:07;20.90;99.90
17039;DHT22;8636;55.750;13.202;2023-06-10T09:59:53;20.40;99.90
17039;DHT22;8636;55.750;13.202;2023-06-10T10:02:23;20.70;99.90
17039;DHT22;8636;55.750;13.202;2023-06-10T10:05:02;21.00;99.90
17039;DHT22;8636;55.750;13.202;2023-06-10T10:07:30;21.00;99.90
17039;DHT22;8636;55.750;13.202;2023-06-10T10:10:10;21.10;99.90
17039;DHT22;8636;55.750;13.202;2023-06-10T10:12:38;21.00;99.90
17039;DHT22;8636;55.750;13.202;2023-06-10T10:15:17;20.80;99.90
17039;DHT22;8636;55.750;13.202;2023-06-10T10:18:06;20.80;99.90
17039;DHT22;8636;55.750;13.202;2023-06-10T10:20:46;20.90;99.90
17039;DHT22;8636;55.750;13.202;2023-06-10T10:23:28;20.60;99.90
17039;DHT22;8636;55.750;13.202;2023-06-10T10:26:07;20.80;99.90
17039;DHT22;8636;55.750;13.202;2023-06-10T10:28:41;20.80;99.90
17039;DHT22;8636;55.750;13.202;2023-06-10T10:31:21;20.80;99.90
17039;DHT22;8636;55.750;13.202;2023-06-10T10:33:54;20.90;99.90
17039;DHT22;8636;55.750;13.202;2023-06-10T10:36:31;21.00;99.90
17039;DHT22;8636;55.750;13.202;2023-06-10T10:38:59;21.00;99.90
17039;DHT22;8636;55.750;13.202;2023-06-10T10:41:30;20.70;99.90
17039;DHT22;8636;55.750;13.202;2023-06-10T10:44:06;21.10;99.90
17039;DHT22;8636;55.750;13.202;2023-06-10T10:46:43;21.40;99.90
17039;DHT22;8636;55.750;13.202;2023-06-10T10:49:19;21.40;99.90
17039;DHT22;8636;55.750;13.202;2023-06-10T10:51:57;21.50;99.90
17039;DHT22;8636;55.750;13.202;2023-06-10T10:54:33;21.70;99.90
17039;DHT22;8636;55.750;13.202;2023-06-10T10:57:16;21.90;99.90
17039;DHT22;8636;55.750;13.202;2023-06-10T10:59:59;21.50;99.90
17039;DHT22;8636;55.750;13.202;2023-06-10T11:02:42;21.40;99.90
17039;DHT22;8636;55.750;13.202;2023-06-10T11:05:18;21.60;99.90
17039;DHT22;8636;55.750;13.202;2023-06-10T11:07:52;21.70;99.90
17039;DHT22;8636;55.750;13.202;2023-06-10T11:10:31;21.80;99.90
17039;DHT22;8636;55.750;13.202;2023-06-10T11:12:59;22.40;99.90
17039;DHT22;8636;55.750;13.202;2023-06-10T11:15:38;22.00;99.90
17039;DHT22;8636;55.750;13.202;2023-06-10T11:18:13;22.10;99.90
17039;DHT22;8636;55.750;13.202;2023-06-10T11:20:55;21.70;99.90
17039;DHT22;8636;55.750;13.202;2023-06-10T11:23:32;22.00;99.90
17039;DHT22;8636;55.750;13.202;2023-06-10T11:26:21;22.00;99.90
17039;DHT22;8636;55.750;13.202;2023-06-10T11:29:08;21.60;99.90
17039;DHT22;8636;55.750;13.202;2023-06-10T11:31:45;21.70;99.90
17039;DHT22;8636;55.750;13.202;2023-06-10T11:34:15;21.70;99.90
17039;DHT22;8636;55.750;13.202;2023-06-10T11:36:56;21.50;99.90
17039;DHT22;8636;55.750;13.202;2023-06-10T11:39:26;21.70;99.90
17039;DHT22;8636;55.750;13.202;2023-06-10T11:41:54;22.00;99.90
17039;DHT22;8636;55.750;13.202;2023-06-10T11:44:29;21.60;99.90
17039;DHT22;8636;55.750;13.202;2023-06-10T11:46:58;21.20;99.90
17039;DHT22;8636;55.750;13.202;2023-06-10T11:49:28;21.20;99.90
17039;DHT22;8636;55.750;13.202;2023-06-10T11:52:04;21.20;99.90
17039;DHT22;8636;55.750;13.202;2023-06-10T11:54:32;21.60;99.90
17039;DHT22;8636;55.750;13.202;2023-06-10T11:57:00;21.80;99.90
17039;DHT22;8636;55.750;13.202;2023-06-10T11:59:43;21.80;99.90
17039;DHT22;8636;55.750;13.202;2023-06-10T12:02:15;22.00;99.90
17039;DHT22;8636;55.750;13.202;2023-06-10T12:04:52;22.00;99.90
17039;DHT22;8636;55.750;13.202;2023-06-10T12:07:20;22.20;99.90
17039;DHT22;8636;55.750;13.202;2023-06-10T12:09:58;21.90;99.90
17039;DHT22;8636;55.750;13.202;2023-06-10T12:12:52;22.00;99.90
17039;DHT22;8636;55.750;13.202;2023-06-10T12:15:24;21.60;99.90
17039;DHT22;8636;55.750;13.202;2023-06-10T12:18:00;21.50;99.90
17039;DHT22;8636;55.750;13.202;2023-06-10T12:20:32;21.60;99.90
17039;DHT22;8636;55.750;13.202;2023-06-10T12:23:10;21.40;99.90
17039;DHT22;8636;55.750;13.202;2023-06-10T12:25:38;21.30;99.90
17039;DHT22;8636;55.750;13.202;2023-06-10T12:28:14;21.60;99.90
17039;DHT22;8636;55.750;13.202;2023-06-10T12:30:44;21.30;99.90
17039;DHT22;8636;55.750;13.202;2023-06-10T12:33:16;21.50;99.90
17039;DHT22;8636;55.750;13.202;2023-06-10T12:35:52;21.40;99.90
17039;DHT22;8636;55.750;13.202;2023-06-10T12:38:24;21.40;99.90
17039;DHT22;8636;55.750;13.202;2023-06-10T12:41:02;21.40;99.90
17039;DHT22;8636;55.750;13.202;2023-06-10T12:43:31;21.20;99.90
17039;DHT22;8636;55.750;13.202;2023-06-10T12:46:08;21.20;99.90
17039;DHT22;8636;55.750;13.202;2023-06-10T12:48:50;21.40;99.90
17039;DHT22;8636;55.750;13.202;2023-06-10T12:51:22;21.60;99.90
17039;DHT22;8636;55.750;13.202;2023-06-10T12:53:56;21.80;99.90
17039;DHT22;8636;55.750;13.202;2023-06-10T12:56:25;21.60;99.90
17039;DHT22;8636;55.750;13.202;2023-06-10T12:58:53;21.30;99.90
17039;DHT22;8636;55.750;13.202;2023-06-10T13:01:27;21.00;99.90
17039;DHT22;8636;55.750;13.202;2023-06-10T13:03:57;20.90;99.90
17039;DHT22;8636;55.750;13.202;2023-06-10T13:06:29;21.40;99.90
17039;DHT22;8636;55.750;13.202;2023-06-10T13:09:05;21.20;99.90
17039;DHT22;8636;55.750;13.202;2023-06-10T13:11:35;21.20;99.90
17039;DHT22;8636;55.750;13.202;2023-06-10T13:14:04;21.20;99.90
17039;DHT22;8636;55.750;13.202;2023-06-10T13:16:39;21.40;99.90
17039;DHT22;8636;55.750;13.202;2023-06-10T13:19:07;21.20;99.90
17039;DHT22;8636;55.750;13.202;2023-06-10T13:21:36;21.30;99.90
17039;DHT22;8636;55.750;13.202;2023-06-10T13:24:11;21.20;99.90
17039;DHT22;8636;55.750;13.202;2023-06-10T13:26:39;21.00;99.90
17039;DHT22;8636;55.750;13.202;2023-06-10T13:29:07;20.80;99.90
17039;DHT22;8636;55.750;13.202;2023-06-10T13:31:47;21.00;99.90
17039;DHT22;8636;55.750;13.202;2023-06-10T13:34:15;21.00;99.90
17039;DHT22;8636;55.750;13.202;2023-06-10T13:36:44;20.80;99.90
17039;DHT22;8636;55.750;13.202;2023-06-10T13:39:20;20.60;99.90
17039;DHT22;8636;55.750;13.202;2023-06-10T13:41:48;20.80;99.90
17039;DHT22;8636;55.750;13.202;2023-06-10T13:44:16;20.80;99.90
17039;DHT22;8636;55.750;13.202;2023-06-10T13:46:50;21.00;99.90
17039;DHT22;8636;55.750;13.202;2023-06-10T13:49:18;21.10;99.90
17039;DHT22;8636;55.750;13.202;2023-06-10T13:51:47;20.70;99.90
17039;DHT22;8636;55.750;13.202;2023-06-10T13:54:22;20.60;99.90
17039;DHT22;8636;55.750;13.202;2023-06-10T13:56:50;20.90;99.90
17039;DHT22;8636;55.750;13.202;2023-06-10T13:59:21;20.90;99.90
17039;DHT22;8636;55.750;13.202;2023-06-10T14:01:56;21.10;99.90
17039;DHT22;8636;55.750;13.202;2023-06-10T14:04:24;21.40;99.90
17039;DHT22;8636;55.750;13.202;2023-06-10T14:06:54;21.00;99.90
17039;DHT22;8636;55.750;13.202;2023-06-10T14:09:28;20.60;99.90
17039;DHT22;8636;55.750;13.202;2023-06-10T14:11:56;20.60;99.90
17039;DHT22;8636;55.750;13.202;2023-06-10T14:14:24;20.50;99.90
17039;DHT22;8636;55.750;13.202;2023-06-10T14:16:58;20.60;99.90
17039;DHT22;8636;55.750;13.202;2023-06-10T14:19:26;20.50;99.90
17039;DHT22;8636;55.750;13.202;2023-06-10T14:21:55;20.20;99.90
17039;DHT22;8636;55.750;13.202;2023-06-10T14:24:33;20.20;99.90
17039;DHT22;8636;55.750;13.202;2023-06-10T14:27:01;20.30;99.90
17039;DHT22;8636;55.750;13.202;2023-06-10T14:29:43;20.20;99.90
17039;DHT22;8636;55.750;13.202;2023-06-10T14:32:11;20.20;99.90
17039;DHT22;8636;55.750;13.202;2023-06-10T14:34:39;19.80;99.90
17039;DHT22;8636;55.750;13.202;2023-06-10T14:37:16;19.90;99.90
17039;DHT22;8636;55.750;13.202;2023-06-10T14:39:44;19.80;99.90
17039;DHT22;8636;55.750;13.202;2023-06-10T14:42:12;20.10;99.90
17039;DHT22;8636;55.750;13.202;2023-06-10T14:44:47;19.80;99.90
17039;DHT22;8636;55.750;13.202;2023-06-10T14:47:16;19.70;99.90
17039;DHT22;8636;55.750;13.202;2023-06-10T14:49:44;19.60;99.90
17039;DHT22;8636;55.750;13.202;2023-06-10T14:52:19;19.60;99.90
17039;DHT22;8636;55.750;13.202;2023-06-10T14:54:47;19.50;99.90
17039;DHT22;8636;55.750;13.202;2023-06-10T14:57:15;19.70;99.90
17039;DHT22;8636;55.750;13.202;2023-06-10T14:59:57;19.70;99.90
17039;DHT22;8636;55.750;13.202;2023-06-10T15:02:25;19.40;99.90
17039;DHT22;8636;55.750;13.202;2023-06-10T15:04:59;19.30;99.90
17039;DHT22;8636;55.750;13.202;2023-06-10T15:07:29;19.60;99.90
17039;DHT22;8636;55.750;13.202;2023-06-10T15:09:56;19.50;99.90
17039;DHT22;8636;55.750;13.202;2023-06-10T15:12:31;19.30;99.90
17039;DHT22;8636;55.750;13.202;2023-06-10T15:14:59;19.60;99.90
17039;DHT22;8636;55.750;13.202;2023-06-10T15:17:27;19.50;99.90
17039;DHT22;8636;55.750;13.202;2023-06-10T15:20:02;19.80;99.90
17039;DHT22;8636;55.750;13.202;2023-06-10T15:22:32;19.70;99.90
17039;DHT22;8636;55.750;13.202;2023-06-10T15:25:02;19.30;99.90
17039;DHT22;8636;55.750;13.202;2023-06-10T15:27:40;19.30;99.90
17039;DHT22;8636;55.750;13.202;2023-06-10T15:30:08;19.50;99.90
17039;DHT22;8636;55.750;13.202;2023-06-10T15:32:36;19.30;99.90
17039;DHT22;8636;55.750;13.202;2023-06-10T15:35:11;19.20;99.90
17039;DHT22;8636;55.750;13.202;2023-06-10T15:37:41;19.20;99.90
17039;DHT22;8636;55.750;13.202;2023-06-10T15:40:09;19.00;99.90
17039;DHT22;8636;55.750;13.202;2023-06-10T15:42:43;19.00;99.90
17039;DHT22;8636;55.750;13.202;2023-06-10T15:45:11;18.90;99.90
17039;DHT22;8636;55.750;13.202;2023-06-10T15:47:39;18.80;99.90
17039;DHT22;8636;55.750;13.202;2023-06-10T15:50:14;18.80;99.90
17039;DHT22;8636;55.750;13.202;2023-06-10T15:52:43;18.80;99.90
17039;DHT22;8636;55.750;13.202;2023-06-10T15:55:11;18.70;99.90
17039;DHT22;8636;55.750;13.202;2023-06-10T15:57:46;18.70;99.90
17039;DHT22;8636;55.750;13.202;2023-06-10T16:00:28;18.50;99.90
17039;DHT22;8636;55.750;13.202;2023-06-10T16:03:04;18.50;99.90